sensor_id;sensor_type;location;lat;lon;timestamp;temperature;humidity
68098;DHT22;54886;47.036;15.466;2023-04-08T00:02:19;7.85;56.64
68098;DHT22;54886;47.036;15.466;2023-04-08T00:04:45;7.86;56.03
68098;DHT22;54886;47.036;15.466;2023-04-08T00:07:10;7.87;56.21
68098;DHT22;54886;47.036;15.466;2023-04-08T00:09:36;7.85;56.75
68098;DHT22;54886;47.036;15.466;2023-04-08T00:12:01;7.85;56.14
68098;DHT22;54886;47.036;15.466;2023-04-08T00:14:27;7.82;56.71
68098;DHT22;54886;47.036;15.466;2023-04-08T00:16:52;7.83;56.55
68098;DHT22;54886;47.036;15.466;2023-04-08T00:19:17;7.79;56.65
68098;DHT22;54886;47.036;15.466;2023-04-08T00:21:44;7.77;56.17
68098;DHT22;54886;47.036;15.466;2023-04-08T00:24:09;7.73;56.29
68098;DHT22;54886;47.036;15.466;2023-04-08T00:26:35;7.70;56.44
68098;DHT22;54886;47.036;15.466;2023-04-08T00:29:00;7.70;56.77
68098;DHT22;54886;47.036;15.466;2023-04-08T00:31:25;7.75;56.68
68098;DHT22;54886;47.036;15.466;2023-04-08T00:33:51;7.70;56.38
68098;DHT22;54886;47.036;15.466;2023-04-08T00:36:16;7.69;56.21
68098;DHT22;54886;47.036;15.466;2023-04-08T00:38:43;7.73;57.06
68098;DHT22;54886;47.036;15.466;2023-04-08T00:41:08;7.73;56.83
68098;DHT22;54886;47.036;15.466;2023-04-08T00:43:34;7.75;56.95
68098;DHT22;54886;47.036;15.466;2023-04-08T00:46:00;7.70;57.21
68098;DHT22;54886;47.036;15.466;2023-04-08T00:48:25;7.70;57.31
68098;DHT22;54886;47.036;15.466;2023-04-08T00:50:51;7.65;57.47
68098;DHT22;54886;47.036;15.466;2023-04-08T00:53:18;7.49;57.98
68098;DHT22;54886;47.036;15.466;2023-04-08T00:55:44;7.52;57.82
68098;DHT22;54886;47.036;15.466;2023-04-08T00:58:10;7.52;57.70
68098;DHT22;54886;47.036;15.466;2023-04-08T01:00:40;7.49;57.34
68098;DHT22;54886;47.036;15.466;2023-04-08T01:03:13;7.45;58.22
68098;DHT22;54886;47.036;15.466;2023-04-08T01:06:01;7.44;57.60
68098;DHT22;54886;47.036;15.466;2023-04-08T01:08:30;7.47;57.48
68098;DHT22;54886;47.036;15.466;2023-04-08T01:11:01;7.34;57.74
68098;DHT22;54886;47.036;15.466;2023-04-08T01:13:30;7.36;57.83
68098;DHT22;54886;47.036;15.466;2023-04-08T01:15:58;7.40;57.33
68098;DHT22;54886;47.036;15.466;2023-04-08T01:18:25;7.38;57.33
68098;DHT22;54886;47.036;15.466;2023-04-08T01:20:52;7.41;57.33
68098;DHT22;54886;47.036;15.466;2023-04-08T01:26:39;7.40;57.59
68098;DHT22;54886;47.036;15.466;2023-04-08T01:29:05;7.34;58.08
68098;DHT22;54886;47.036;15.466;2023-04-08T01:31:32;7.31;57.91
68098;DHT22;54886;47.036;15.466;2023-04-08T01:33:59;7.34;57.97
68098;DHT22;54886;47.036;15.466;2023-04-08T01:36:25;7.28;58.28
68098;DHT22;54886;47.036;15.466;2023-04-08T01:38:52;7.28;58.49
68098;DHT22;54886;47.036;15.466;2023-04-08T01:41:19;7.28;58.02
68098;DHT22;54886;47.036;15.466;2023-04-08T01:43:46;7.30;58.25
68098;DHT22;54886;47.036;15.466;2023-04-08T01:46:12;7.28;57.96
68098;DHT22;54886;47.036;15.466;2023-04-08T01:48:39;7.25;58.40
68098;DHT22;54886;47.036;15.466;2023-04-08T01:51:05;7.27;58.50
68098;DHT22;54886;47.036;15.466;2023-04-08T01:53:31;7.30;58.44
68098;DHT22;54886;47.036;15.466;2023-04-08T01:56:03;7.27;58.46
68098;DHT22;54886;47.036;15.466;2023-04-08T02:01:16;7.18;59.60
68098;DHT22;54886;47.036;15.466;2023-04-08T02:03:43;7.17;59.43
68098;DHT22;54886;47.036;15.466;2023-04-08T02:06:09;7.18;58.99
68098;DHT22;54886;47.036;15.466;2023-04-08T02:08:35;7.20;58.95
68098;DHT22;54886;47.036;15.466;2023-04-08T02:11:01;7.22;59.01
68098;DHT22;54886;47.036;15.466;2023-04-08T02:13:28;7.20;59.54
68098;DHT22;54886;47.036;15.466;2023-04-08T02:15:58;7.25;59.29
68098;DHT22;54886;47.036;15.466;2023-04-08T02:18:25;7.24;59.26
68098;DHT22;54886;47.036;15.466;2023-04-08T02:21:12;7.17;59.28
68098;DHT22;54886;47.036;15.466;2023-04-08T02:23:39;7.20;59.64
68098;DHT22;54886;47.036;15.466;2023-04-08T02:26:12;7.22;58.18
68098;DHT22;54886;47.036;15.466;2023-04-08T02:28:39;7.25;58.85
68098;DHT22;54886;47.036;15.466;2023-04-08T02:31:10;7.24;59.04
68098;DHT22;54886;47.036;15.466;2023-04-08T02:33:38;7.24;59.60
68098;DHT22;54886;47.036;15.466;2023-04-08T02:36:04;7.22;59.73
68098;DHT22;54886;47.036;15.466;2023-04-08T02:38:30;7.24;58.71
68098;DHT22;54886;47.036;15.466;2023-04-08T02:40:56;7.21;60.11
68098;DHT22;54886;47.036;15.466;2023-04-08T02:43:21;7.18;59.98
68098;DHT22;54886;47.036;15.466;2023-04-08T02:45:51;7.27;60.10
68098;DHT22;54886;47.036;15.466;2023-04-08T02:48:16;7.22;60.00
68098;DHT22;54886;47.036;15.466;2023-04-08T02:50:42;7.15;60.48
68098;DHT22;54886;47.036;15.466;2023-04-08T02:53:08;7.20;58.96
68098;DHT22;54886;47.036;15.466;2023-04-08T02:55:33;7.15;61.09
68098;DHT22;54886;47.036;15.466;2023-04-08T02:57:59;7.15;60.68
68098;DHT22;54886;47.036;15.466;2023-04-08T03:00:24;7.15;60.66
68098;DHT22;54886;47.036;15.466;2023-04-08T03:02:50;7.21;59.86
68098;DHT22;54886;47.036;15.466;2023-04-08T03:05:15;7.22;59.79
68098;DHT22;54886;47.036;15.466;2023-04-08T03:07:41;7.18;61.16
68098;DHT22;54886;47.036;15.466;2023-04-08T03:10:07;7.18;60.39
68098;DHT22;54886;47.036;15.466;2023-04-08T03:12:32;7.14;60.91
68098;DHT22;54886;47.036;15.466;2023-04-08T03:14:58;7.08;61.61
68098;DHT22;54886;47.036;15.466;2023-04-08T03:17:24;7.01;61.79
68098;DHT22;54886;47.036;15.466;2023-04-08T03:19:49;6.97;61.64
68098;DHT22;54886;47.036;15.466;2023-04-08T03:22:15;6.99;61.76
68098;DHT22;54886;47.036;15.466;2023-04-08T03:24:40;6.94;62.25
68098;DHT22;54886;47.036;15.466;2023-04-08T03:27:06;7.01;61.59
68098;DHT22;54886;47.036;15.466;2023-04-08T03:29:32;7.08;60.33
68098;DHT22;54886;47.036;15.466;2023-04-08T03:31:58;7.08;63.04
68098;DHT22;54886;47.036;15.466;2023-04-08T03:34:23;7.08;63.30
68098;DHT22;54886;47.036;15.466;2023-04-08T03:36:49;7.08;62.70
68098;DHT22;54886;47.036;15.466;2023-04-08T03:39:14;7.13;61.98
68098;DHT22;54886;47.036;15.466;2023-04-08T03:41:40;7.10;62.63
68098;DHT22;54886;47.036;15.466;2023-04-08T03:44:05;7.13;63.79
68098;DHT22;54886;47.036;15.466;2023-04-08T03:46:30;7.08;63.96
68098;DHT22;54886;47.036;15.466;2023-04-08T03:48:56;7.00;63.58
68098;DHT22;54886;47.036;15.466;2023-04-08T03:51:21;6.96;63.34
68098;DHT22;54886;47.036;15.466;2023-04-08T03:53:47;6.93;64.63
68098;DHT22;54886;47.036;15.466;2023-04-08T03:56:13;6.99;63.38
68098;DHT22;54886;47.036;15.466;2023-04-08T03:58:39;7.00;63.84
68098;DHT22;54886;47.036;15.466;2023-04-08T04:01:04;7.05;63.09
68098;DHT22;54886;47.036;15.466;2023-04-08T04:03:30;7.03;66.30
68098;DHT22;54886;47.036;15.466;2023-04-08T04:05:55;7.05;63.94
68098;DHT22;54886;47.036;15.466;2023-04-08T04:08:21;7.10;65.42
68098;DHT22;54886;47.036;15.466;2023-04-08T04:10:46;7.07;67.32
68098;DHT22;54886;47.036;15.466;2023-04-08T04:13:12;7.08;66.31
68098;DHT22;54886;47.036;15.466;2023-04-08T04:15:38;7.07;65.90
68098;DHT22;54886;47.036;15.466;2023-04-08T04:18:04;7.04;67.71
68098;DHT22;54886;47.036;15.466;2023-04-08T04:20:30;7.07;66.00
68098;DHT22;54886;47.036;15.466;2023-04-08T04:22:55;7.07;66.40
68098;DHT22;54886;47.036;15.466;2023-04-08T04:25:21;7.07;66.71
68098;DHT22;54886;47.036;15.466;2023-04-08T04:27:46;7.04;68.55
68098;DHT22;54886;47.036;15.466;2023-04-08T04:30:11;6.94;68.85
68098;DHT22;54886;47.036;15.466;2023-04-08T04:32:40;6.94;68.88
68098;DHT22;54886;47.036;15.466;2023-04-08T04:35:08;6.94;68.66
68098;DHT22;54886;47.036;15.466;2023-04-08T04:37:33;6.92;69.82
68098;DHT22;54886;47.036;15.466;2023-04-08T04:39:59;6.79;70.13
68098;DHT22;54886;47.036;15.466;2023-04-08T04:42:24;6.61;71.02
68098;DHT22;54886;47.036;15.466;2023-04-08T04:44:50;6.66;70.81
68098;DHT22;54886;47.036;15.466;2023-04-08T04:47:15;6.66;70.73
68098;DHT22;54886;47.036;15.466;2023-04-08T04:49:41;6.68;70.58
68098;DHT22;54886;47.036;15.466;2023-04-08T04:52:07;6.69;71.16
68098;DHT22;54886;47.036;15.466;2023-04-08T04:54:32;6.68;71.08
68098;DHT22;54886;47.036;15.466;2023-04-08T04:56:57;6.61;72.04
68098;DHT22;54886;47.036;15.466;2023-04-08T04:59:23;6.64;71.51
68098;DHT22;54886;47.036;15.466;2023-04-08T05:01:48;6.58;71.70
68098;DHT22;54886;47.036;15.466;2023-04-08T05:04:14;6.61;71.59
68098;DHT22;54886;47.036;15.466;2023-04-08T05:06:39;6.55;71.36
68098;DHT22;54886;47.036;15.466;2023-04-08T05:09:05;6.59;71.63
68098;DHT22;54886;47.036;15.466;2023-04-08T05:11:30;6.61;72.16
68098;DHT22;54886;47.036;15.466;2023-04-08T05:13:55;6.56;72.90
68098;DHT22;54886;47.036;15.466;2023-04-08T05:16:21;6.59;72.32
68098;DHT22;54886;47.036;15.466;2023-04-08T05:18:46;6.61;72.16
68098;DHT22;54886;47.036;15.466;2023-04-08T05:21:12;6.59;73.09
68098;DHT22;54886;47.036;15.466;2023-04-08T05:23:37;6.59;71.71
68098;DHT22;54886;47.036;15.466;2023-04-08T05:26:06;6.55;72.47
68098;DHT22;54886;47.036;15.466;2023-04-08T05:28:31;6.55;73.44
68098;DHT22;54886;47.036;15.466;2023-04-08T05:30:57;6.52;74.11
68098;DHT22;54886;47.036;15.466;2023-04-08T05:33:22;6.45;74.05
68098;DHT22;54886;47.036;15.466;2023-04-08T05:35:48;6.48;74.07
68098;DHT22;54886;47.036;15.466;2023-04-08T05:38:13;6.48;74.16
68098;DHT22;54886;47.036;15.466;2023-04-08T05:40:38;6.48;74.30
68098;DHT22;54886;47.036;15.466;2023-04-08T05:43:04;6.40;74.98
68098;DHT22;54886;47.036;15.466;2023-04-08T05:45:29;6.38;75.81
68098;DHT22;54886;47.036;15.466;2023-04-08T05:47:55;6.44;75.63
68098;DHT22;54886;47.036;15.466;2023-04-08T05:50:20;6.46;75.62
68098;DHT22;54886;47.036;15.466;2023-04-08T05:52:46;6.48;75.85
68098;DHT22;54886;47.036;15.466;2023-04-08T05:55:12;6.46;75.87
68098;DHT22;54886;47.036;15.466;2023-04-08T05:57:38;6.52;74.74
68098;DHT22;54886;47.036;15.466;2023-04-08T06:00:04;6.51;75.19
68098;DHT22;54886;47.036;15.466;2023-04-08T06:02:30;6.51;74.68
68098;DHT22;54886;47.036;15.466;2023-04-08T06:04:55;6.45;75.24
68098;DHT22;54886;47.036;15.466;2023-04-08T06:07:21;6.51;74.38
68098;DHT22;54886;47.036;15.466;2023-04-08T06:09:46;6.52;73.72
68098;DHT22;54886;47.036;15.466;2023-04-08T06:12:12;6.44;76.12
68098;DHT22;54886;47.036;15.466;2023-04-08T06:14:37;6.45;76.19
68098;DHT22;54886;47.036;15.466;2023-04-08T06:17:03;6.46;75.68
68098;DHT22;54886;47.036;15.466;2023-04-08T06:19:28;6.46;76.05
68098;DHT22;54886;47.036;15.466;2023-04-08T06:21:54;6.45;74.97
68098;DHT22;54886;47.036;15.466;2023-04-08T06:24:24;6.51;73.30
68098;DHT22;54886;47.036;15.466;2023-04-08T06:26:50;6.49;73.81
68098;DHT22;54886;47.036;15.466;2023-04-08T06:29:16;6.46;74.66
68098;DHT22;54886;47.036;15.466;2023-04-08T06:31:42;6.41;75.45
68098;DHT22;54886;47.036;15.466;2023-04-08T06:34:07;6.41;74.81
68098;DHT22;54886;47.036;15.466;2023-04-08T06:36:32;6.40;73.91
68098;DHT22;54886;47.036;15.466;2023-04-08T06:38:58;6.45;74.00
68098;DHT22;54886;47.036;15.466;2023-04-08T06:41:23;6.44;73.61
68098;DHT22;54886;47.036;15.466;2023-04-08T06:43:49;6.34;76.39
68098;DHT22;54886;47.036;15.466;2023-04-08T06:46:14;6.40;75.01
68098;DHT22;54886;47.036;15.466;2023-04-08T06:48:40;6.45;74.30
68098;DHT22;54886;47.036;15.466;2023-04-08T06:51:05;6.40;74.42
68098;DHT22;54886;47.036;15.466;2023-04-08T06:53:32;6.37;75.07
68098;DHT22;54886;47.036;15.466;2023-04-08T06:55:58;6.32;75.38
68098;DHT22;54886;47.036;15.466;2023-04-08T06:58:23;6.34;75.04
68098;DHT22;54886;47.036;15.466;2023-04-08T07:00:49;6.31;75.09
68098;DHT22;54886;47.036;15.466;2023-04-08T07:03:14;6.31;74.92
68098;DHT22;54886;47.036;15.466;2023-04-08T07:05:40;6.28;75.54
68098;DHT22;54886;47.036;15.466;2023-04-08T07:08:06;6.25;75.74
68098;DHT22;54886;47.036;15.466;2023-04-08T07:10:31;6.25;74.51
68098;DHT22;54886;47.036;15.466;2023-04-08T07:12:57;6.25;75.37
68098;DHT22;54886;47.036;15.466;2023-04-08T07:15:22;6.21;76.32
68098;DHT22;54886;47.036;15.466;2023-04-08T07:17:48;6.21;75.95
68098;DHT22;54886;47.036;15.466;2023-04-08T07:20:13;6.16;76.54
68098;DHT22;54886;47.036;15.466;2023-04-08T07:22:39;6.16;77.14
68098;DHT22;54886;47.036;15.466;2023-04-08T07:25:05;6.11;76.50
68098;DHT22;54886;47.036;15.466;2023-04-08T07:27:33;6.16;75.76
68098;DHT22;54886;47.036;15.466;2023-04-08T07:29:58;6.07;75.56
68098;DHT22;54886;47.036;15.466;2023-04-08T07:32:23;6.06;75.49
68098;DHT22;54886;47.036;15.466;2023-04-08T07:34:49;6.07;76.69
68098;DHT22;54886;47.036;15.466;2023-04-08T07:37:14;6.11;76.49
68098;DHT22;54886;47.036;15.466;2023-04-08T07:39:40;6.09;76.32
68098;DHT22;54886;47.036;15.466;2023-04-08T07:42:05;6.13;75.83
68098;DHT22;54886;47.036;15.466;2023-04-08T07:44:30;6.10;75.57
68098;DHT22;54886;47.036;15.466;2023-04-08T07:46:56;6.04;75.66
68098;DHT22;54886;47.036;15.466;2023-04-08T07:49:21;6.14;74.65
68098;DHT22;54886;47.036;15.466;2023-04-08T07:51:48;6.13;76.36
68098;DHT22;54886;47.036;15.466;2023-04-08T07:54:13;6.10;76.81
68098;DHT22;54886;47.036;15.466;2023-04-08T07:56:42;6.11;75.60
68098;DHT22;54886;47.036;15.466;2023-04-08T07:59:09;6.14;74.73
68098;DHT22;54886;47.036;15.466;2023-04-08T08:01:35;6.14;74.63
68098;DHT22;54886;47.036;15.466;2023-04-08T08:04:01;6.09;75.90
68098;DHT22;54886;47.036;15.466;2023-04-08T08:06:26;6.06;75.51
68098;DHT22;54886;47.036;15.466;2023-04-08T08:08:52;6.04;75.63
68098;DHT22;54886;47.036;15.466;2023-04-08T08:11:18;6.03;75.92
68098;DHT22;54886;47.036;15.466;2023-04-08T08:13:43;6.03;75.31
68098;DHT22;54886;47.036;15.466;2023-04-08T08:16:09;6.03;74.17
68098;DHT22;54886;47.036;15.466;2023-04-08T08:18:38;6.06;75.05
68098;DHT22;54886;47.036;15.466;2023-04-08T08:21:04;6.06;75.20
68098;DHT22;54886;47.036;15.466;2023-04-08T08:23:30;6.09;73.83
68098;DHT22;54886;47.036;15.466;2023-04-08T08:26:06;6.10;73.50
68098;DHT22;54886;47.036;15.466;2023-04-08T08:28:33;6.14;70.37
68098;DHT22;54886;47.036;15.466;2023-04-08T08:30:59;6.11;75.36
68098;DHT22;54886;47.036;15.466;2023-04-08T08:33:25;6.09;74.98
68098;DHT22;54886;47.036;15.466;2023-04-08T08:35:50;6.13;74.05
68098;DHT22;54886;47.036;15.466;2023-04-08T08:38:16;6.20;73.12
68098;DHT22;54886;47.036;15.466;2023-04-08T08:40:43;6.04;76.03
68098;DHT22;54886;47.036;15.466;2023-04-08T08:43:09;6.14;73.44
68098;DHT22;54886;47.036;15.466;2023-04-08T08:45:41;6.16;74.96
68098;DHT22;54886;47.036;15.466;2023-04-08T08:48:07;6.20;76.44
68098;DHT22;54886;47.036;15.466;2023-04-08T08:50:33;6.18;76.32
68098;DHT22;54886;47.036;15.466;2023-04-08T08:52:59;6.20;76.95
68098;DHT22;54886;47.036;15.466;2023-04-08T08:55:25;6.18;75.46
68098;DHT22;54886;47.036;15.466;2023-04-08T08:57:50;6.24;76.29
68098;DHT22;54886;47.036;15.466;2023-04-08T09:00:16;6.28;76.94
68098;DHT22;54886;47.036;15.466;2023-04-08T09:02:42;6.24;77.17
68098;DHT22;54886;47.036;15.466;2023-04-08T09:05:07;6.27;76.27
68098;DHT22;54886;47.036;15.466;2023-04-08T09:07:37;6.32;75.93
68098;DHT22;54886;47.036;15.466;2023-04-08T09:10:06;6.32;75.51
68098;DHT22;54886;47.036;15.466;2023-04-08T09:12:31;6.35;74.22
68098;DHT22;54886;47.036;15.466;2023-04-08T09:15:15;6.35;74.68
68098;DHT22;54886;47.036;15.466;2023-04-08T09:17:40;6.21;75.25
68098;DHT22;54886;47.036;15.466;2023-04-08T09:20:10;6.25;75.23
68098;DHT22;54886;47.036;15.466;2023-04-08T09:23:02;6.34;74.95
68098;DHT22;54886;47.036;15.466;2023-04-08T09:25:31;6.30;78.11
68098;DHT22;54886;47.036;15.466;2023-04-08T09:27:57;6.27;78.45
68098;DHT22;54886;47.036;15.466;2023-04-08T09:30:24;6.35;76.10
68098;DHT22;54886;47.036;15.466;2023-04-08T09:32:52;6.44;74.85
68098;DHT22;54886;47.036;15.466;2023-04-08T09:35:20;6.46;76.97
68098;DHT22;54886;47.036;15.466;2023-04-08T09:37:46;6.48;77.40
68098;DHT22;54886;47.036;15.466;2023-04-08T09:40:12;6.52;75.85
68098;DHT22;54886;47.036;15.466;2023-04-08T09:42:43;6.56;75.43
68098;DHT22;54886;47.036;15.466;2023-04-08T09:45:09;6.52;76.70
68098;DHT22;54886;47.036;15.466;2023-04-08T09:47:43;6.52;76.28
68098;DHT22;54886;47.036;15.466;2023-04-08T09:50:11;6.44;75.71
68098;DHT22;54886;47.036;15.466;2023-04-08T09:52:45;6.45;75.30
68098;DHT22;54886;47.036;15.466;2023-04-08T09:55:12;6.49;74.04
68098;DHT22;54886;47.036;15.466;2023-04-08T10:02:43;6.65;78.18
68098;DHT22;54886;47.036;15.466;2023-04-08T10:05:11;6.73;75.79
68098;DHT22;54886;47.036;15.466;2023-04-08T10:07:38;6.68;77.05
68098;DHT22;54886;47.036;15.466;2023-04-08T10:10:04;6.75;76.55
68098;DHT22;54886;47.036;15.466;2023-04-08T10:12:31;6.73;77.57
68098;DHT22;54886;47.036;15.466;2023-04-08T10:15:26;6.80;75.74
68098;DHT22;54886;47.036;15.466;2023-04-08T10:18:40;6.83;75.18
68098;DHT22;54886;47.036;15.466;2023-04-08T10:20:47;6.96;72.47
68098;DHT22;54886;47.036;15.466;2023-04-08T10:23:15;6.99;74.01
68098;DHT22;54886;47.036;15.466;2023-04-08T10:25:47;7.03;71.78
68098;DHT22;54886;47.036;15.466;2023-04-08T10:33:17;7.01;76.02
68098;DHT22;54886;47.036;15.466;2023-04-08T10:35:46;7.11;75.23
68098;DHT22;54886;47.036;15.466;2023-04-08T10:38:13;7.10;75.32
68098;DHT22;54886;47.036;15.466;2023-04-08T10:40:39;7.13;75.85
68098;DHT22;54886;47.036;15.466;2023-04-08T10:43:07;7.14;75.55
68098;DHT22;54886;47.036;15.466;2023-04-08T10:45:33;7.20;76.44
68098;DHT22;54886;47.036;15.466;2023-04-08T10:48:15;7.17;75.93
68098;DHT22;54886;47.036;15.466;2023-04-08T10:50:42;7.17;77.14
68098;DHT22;54886;47.036;15.466;2023-04-08T10:53:09;7.24;76.08
68098;DHT22;54886;47.036;15.466;2023-04-08T10:55:34;7.31;75.39
68098;DHT22;54886;47.036;15.466;2023-04-08T10:58:06;7.31;75.21
68098;DHT22;54886;47.036;15.466;2023-04-08T11:00:33;7.32;74.77
68098;DHT22;54886;47.036;15.466;2023-04-08T11:03:03;7.35;76.21
68098;DHT22;54886;47.036;15.466;2023-04-08T11:05:29;7.35;75.08
68098;DHT22;54886;47.036;15.466;2023-04-08T11:07:54;7.34;75.38
68098;DHT22;54886;47.036;15.466;2023-04-08T11:10:20;7.36;74.52
68098;DHT22;54886;47.036;15.466;2023-04-08T11:12:45;7.30;74.42
68098;DHT22;54886;47.036;15.466;2023-04-08T11:15:12;7.32;74.77
68098;DHT22;54886;47.036;15.466;2023-04-08T11:17:38;7.40;74.77
68098;DHT22;54886;47.036;15.466;2023-04-08T11:20:04;7.47;75.03
68098;DHT22;54886;47.036;15.466;2023-04-08T11:22:31;7.45;74.84
68098;DHT22;54886;47.036;15.466;2023-04-08T11:24:58;7.52;74.60
68098;DHT22;54886;47.036;15.466;2023-04-08T11:27:24;7.59;73.78
68098;DHT22;54886;47.036;15.466;2023-04-08T11:29:54;7.65;73.46
68098;DHT22;54886;47.036;15.466;2023-04-08T11:32:21;7.59;72.01
68098;DHT22;54886;47.036;15.466;2023-04-08T11:34:47;7.59;73.12
68098;DHT22;54886;47.036;15.466;2023-04-08T11:37:13;7.65;72.62
68098;DHT22;54886;47.036;15.466;2023-04-08T11:39:45;7.68;70.36
68098;DHT22;54886;47.036;15.466;2023-04-08T11:44:52;7.73;73.16
68098;DHT22;54886;47.036;15.466;2023-04-08T11:47:17;7.76;73.69
68098;DHT22;54886;47.036;15.466;2023-04-08T11:49:44;7.79;73.34
68098;DHT22;54886;47.036;15.466;2023-04-08T11:52:09;7.83;72.78
68098;DHT22;54886;47.036;15.466;2023-04-08T11:54:40;7.79;72.33
68098;DHT22;54886;47.036;15.466;2023-04-08T11:57:06;7.76;73.30
68098;DHT22;54886;47.036;15.466;2023-04-08T11:59:36;7.83;73.73
68098;DHT22;54886;47.036;15.466;2023-04-08T12:02:02;7.79;73.15
68098;DHT22;54886;47.036;15.466;2023-04-08T12:04:28;7.73;72.17
68098;DHT22;54886;47.036;15.466;2023-04-08T12:06:54;7.79;72.25
68098;DHT22;54886;47.036;15.466;2023-04-08T12:09:20;7.82;72.50
68098;DHT22;54886;47.036;15.466;2023-04-08T12:11:45;7.76;74.14
68098;DHT22;54886;47.036;15.466;2023-04-08T12:14:11;7.73;73.50
68098;DHT22;54886;47.036;15.466;2023-04-08T12:16:36;7.80;72.68
68098;DHT22;54886;47.036;15.466;2023-04-08T12:19:02;7.79;73.98
68098;DHT22;54886;47.036;15.466;2023-04-08T12:21:27;7.77;73.59
68098;DHT22;54886;47.036;15.466;2023-04-08T12:23:53;7.69;74.04
68098;DHT22;54886;47.036;15.466;2023-04-08T12:26:18;7.68;75.19
68098;DHT22;54886;47.036;15.466;2023-04-08T12:28:46;7.73;75.16
68098;DHT22;54886;47.036;15.466;2023-04-08T12:31:11;7.75;74.94
68098;DHT22;54886;47.036;15.466;2023-04-08T12:33:37;7.73;74.31
68098;DHT22;54886;47.036;15.466;2023-04-08T12:36:02;7.76;74.01
68098;DHT22;54886;47.036;15.466;2023-04-08T12:38:28;7.79;74.07
68098;DHT22;54886;47.036;15.466;2023-04-08T12:40:54;7.83;73.11
68098;DHT22;54886;47.036;15.466;2023-04-08T12:43:20;7.85;73.64
68098;DHT22;54886;47.036;15.466;2023-04-08T12:45:46;7.90;74.20
68098;DHT22;54886;47.036;15.466;2023-04-08T12:48:12;7.90;74.76
68098;DHT22;54886;47.036;15.466;2023-04-08T12:50:38;7.79;73.13
68098;DHT22;54886;47.036;15.466;2023-04-08T12:53:03;7.91;73.09
68098;DHT22;54886;47.036;15.466;2023-04-08T12:55:28;7.93;73.33
68098;DHT22;54886;47.036;15.466;2023-04-08T12:57:55;7.97;73.13
68098;DHT22;54886;47.036;15.466;2023-04-08T13:00:21;7.94;73.71
68098;DHT22;54886;47.036;15.466;2023-04-08T13:02:46;7.94;72.91
68098;DHT22;54886;47.036;15.466;2023-04-08T13:05:12;7.96;73.66
68098;DHT22;54886;47.036;15.466;2023-04-08T13:07:37;7.87;73.19
68098;DHT22;54886;47.036;15.466;2023-04-08T13:10:03;7.93;73.02
68098;DHT22;54886;47.036;15.466;2023-04-08T13:12:31;7.89;73.12
68098;DHT22;54886;47.036;15.466;2023-04-08T13:14:56;7.76;73.48
68098;DHT22;54886;47.036;15.466;2023-04-08T13:17:22;7.77;73.94
68098;DHT22;54886;47.036;15.466;2023-04-08T13:19:48;7.79;74.49
68098;DHT22;54886;47.036;15.466;2023-04-08T13:22:14;7.79;74.99
68098;DHT22;54886;47.036;15.466;2023-04-08T13:24:39;7.72;74.95
68098;DHT22;54886;47.036;15.466;2023-04-08T13:27:05;7.76;74.96
68098;DHT22;54886;47.036;15.466;2023-04-08T13:29:30;7.85;74.19
68098;DHT22;54886;47.036;15.466;2023-04-08T13:31:56;7.85;74.69
68098;DHT22;54886;47.036;15.466;2023-04-08T13:34:21;7.83;75.30
68098;DHT22;54886;47.036;15.466;2023-04-08T13:36:46;7.79;75.36
68098;DHT22;54886;47.036;15.466;2023-04-08T13:39:12;7.79;75.30
68098;DHT22;54886;47.036;15.466;2023-04-08T13:41:37;7.75;75.79
68098;DHT22;54886;47.036;15.466;2023-04-08T13:44:03;7.76;75.99
68098;DHT22;54886;47.036;15.466;2023-04-08T13:46:28;7.70;75.98
68098;DHT22;54886;47.036;15.466;2023-04-08T13:48:54;7.72;75.65
68098;DHT22;54886;47.036;15.466;2023-04-08T13:51:19;7.65;76.45
68098;DHT22;54886;47.036;15.466;2023-04-08T13:53:45;7.61;76.03
68098;DHT22;54886;47.036;15.466;2023-04-08T13:56:10;7.58;76.09
68098;DHT22;54886;47.036;15.466;2023-04-08T13:58:35;7.48;76.71
68098;DHT22;54886;47.036;15.466;2023-04-08T14:01:01;7.51;76.34
68098;DHT22;54886;47.036;15.466;2023-04-08T14:03:27;7.56;76.46
68098;DHT22;54886;47.036;15.466;2023-04-08T14:05:52;7.55;76.46
68098;DHT22;54886;47.036;15.466;2023-04-08T14:08:17;7.52;76.70
68098;DHT22;54886;47.036;15.466;2023-04-08T14:10:52;7.58;75.59
68098;DHT22;54886;47.036;15.466;2023-04-08T14:13:17;7.59;75.81
68098;DHT22;54886;47.036;15.466;2023-04-08T14:15:43;7.54;76.47
68098;DHT22;54886;47.036;15.466;2023-04-08T14:18:08;7.58;75.19
68098;DHT22;54886;47.036;15.466;2023-04-08T14:20:34;7.59;76.11
68098;DHT22;54886;47.036;15.466;2023-04-08T14:23:00;7.56;76.61
68098;DHT22;54886;47.036;15.466;2023-04-08T14:25:25;7.55;76.25
68098;DHT22;54886;47.036;15.466;2023-04-08T14:27:52;7.58;76.01
68098;DHT22;54886;47.036;15.466;2023-04-08T14:30:17;7.52;76.95
68098;DHT22;54886;47.036;15.466;2023-04-08T14:32:43;7.48;77.05
68098;DHT22;54886;47.036;15.466;2023-04-08T14:35:08;7.54;76.06
68098;DHT22;54886;47.036;15.466;2023-04-08T14:37:34;7.45;77.06
68098;DHT22;54886;47.036;15.466;2023-04-08T14:40:02;7.45;76.72
68098;DHT22;54886;47.036;15.466;2023-04-08T14:42:28;7.47;76.20
68098;DHT22;54886;47.036;15.466;2023-04-08T14:44:54;7.48;76.07
68098;DHT22;54886;47.036;15.466;2023-04-08T14:47:21;7.41;76.97
68098;DHT22;54886;47.036;15.466;2023-04-08T14:49:47;7.36;77.52
68098;DHT22;54886;47.036;15.466;2023-04-08T14:52:12;7.42;76.36
68098;DHT22;54886;47.036;15.466;2023-04-08T14:54:38;7.48;76.39
68098;DHT22;54886;47.036;15.466;2023-04-08T14:57:03;7.44;76.46
68098;DHT22;54886;47.036;15.466;2023-04-08T14:59:29;7.42;76.74
68098;DHT22;54886;47.036;15.466;2023-04-08T15:01:54;7.40;76.95
68098;DHT22;54886;47.036;15.466;2023-04-08T15:04:20;7.35;77.22
68098;DHT22;54886;47.036;15.466;2023-04-08T15:06:45;7.40;76.43
68098;DHT22;54886;47.036;15.466;2023-04-08T15:09:11;7.40;76.42
68098;DHT22;54886;47.036;15.466;2023-04-08T15:11:36;7.35;76.57
68098;DHT22;54886;47.036;15.466;2023-04-08T15:14:01;7.35;76.24
68098;DHT22;54886;47.036;15.466;2023-04-08T15:16:27;7.35;76.13
68098;DHT22;54886;47.036;15.466;2023-04-08T15:18:52;7.34;76.49
68098;DHT22;54886;47.036;15.466;2023-04-08T15:21:19;7.32;75.67
68098;DHT22;54886;47.036;15.466;2023-04-08T15:23:44;7.25;76.52
68098;DHT22;54886;47.036;15.466;2023-04-08T15:26:10;7.27;76.05
68098;DHT22;54886;47.036;15.466;2023-04-08T15:28:35;7.28;75.93
68098;DHT22;54886;47.036;15.466;2023-04-08T15:31:06;7.25;76.19
68098;DHT22;54886;47.036;15.466;2023-04-08T15:33:31;7.22;76.67
68098;DHT22;54886;47.036;15.466;2023-04-08T15:35:58;7.22;76.85
68098;DHT22;54886;47.036;15.466;2023-04-08T15:38:27;7.18;76.73
68098;DHT22;54886;47.036;15.466;2023-04-08T15:40:52;7.17;76.46
68098;DHT22;54886;47.036;15.466;2023-04-08T15:43:18;7.20;76.39
68098;DHT22;54886;47.036;15.466;2023-04-08T15:45:43;7.10;76.83